sensor_id;sensor_type;location;lat;lon;timestamp;pressure;altitude;pressure_sealevel;temperature;humidity
7824;BME280;3957;48.61947800;9.05303100;2023-12-04T00:00:28;96107.03;;;-9.28;100.00
7824;BME280;3957;48.61947800;9.05303100;2023-12-04T00:01:31;96097.56;;;-9.29;100.00
7824;BME280;3957;48.61947800;9.05303100;2023-12-04T00:02:33;96098.00;;;-9.04;100.00
7824;BME280;3957;48.61947800;9.05303100;2023-12-04T00:03:35;96094.06;;;-9.12;100.00
7824;BME280;3957;48.61947800;9.05303100;2023-12-04T00:04:40;96091.31;;;-9.09;100.00
7824;BME280;3957;48.61947800;9.05303100;2023-12-04T00:05:42;96091.25;;;-9.07;100.00
7824;BME280;3957;48.61947800;9.05303100;2023-12-04T00:06:45;96089.75;;;-9.11;100.00
7824;BME280;3957;48.61947800;9.05303100;2023-12-04T00:07:46;96088.47;;;-9.20;100.00
7824;BME280;3957;48.61947800;9.05303100;2023-12-04T00:08:48;96086.38;;;-9.29;100.00
7824;BME280;3957;48.61947800;9.05303100;2023-12-04T00:09:49;96084.19;;;-9.37;100.00
7824;BME280;3957;48.61947800;9.05303100;2023-12-04T00:10:51;96082.78;;;-9.43;100.00
7824;BME280;3957;48.61947800;9.05303100;2023-12-04T00:11:53;96079.00;;;-9.37;100.00
7824;BME280;3957;48.61947800;9.05303100;2023-12-04T00:12:55;96077.66;;;-9.44;100.00
7824;BME280;3957;48.61947800;9.05303100;2023-12-04T00:13:56;96076.16;;;-9.48;100.00
7824;BME280;3957;48.61947800;9.05303100;2023-12-04T00:14:58;96071.13;;;-9.51;100.00
7824;BME280;3957;48.61947800;9.05303100;2023-12-04T00:15:59;96069.56;;;-9.54;100.00
7824;BME280;3957;48.61947800;9.05303100;2023-12-04T00:17:01;96066.88;;;-9.52;100.00
7824;BME280;3957;48.61947800;9.05303100;2023-12-04T00:18:02;96070.13;;;-9.49;100.00
7824;BME280;3957;48.61947800;9.05303100;2023-12-04T00:19:04;96061.34;;;-9.46;100.00
7824;BME280;3957;48.61947800;9.05303100;2023-12-04T00:20:07;96061.44;;;-9.48;100.00
7824;BME280;3957;48.61947800;9.05303100;2023-12-04T00:21:10;96055.53;;;-9.50;100.00
7824;BME280;3957;48.61947800;9.05303100;2023-12-04T00:22:12;96064.13;;;-9.49;100.00
7824;BME280;3957;48.61947800;9.05303100;2023-12-04T00:23:13;96062.44;;;-9.50;100.00
7824;BME280;3957;48.61947800;9.05303100;2023-12-04T00:24:15;96059.03;;;-9.51;100.00
7824;BME280;3957;48.61947800;9.05303100;2023-12-04T00:25:16;96053.00;;;-9.51;100.00
7824;BME280;3957;48.61947800;9.05303100;2023-12-04T00:26:18;96053.06;;;-9.53;100.00
7824;BME280;3957;48.61947800;9.05303100;2023-12-04T00:27:20;96050.81;;;-9.43;100.00
7824;BME280;3957;48.61947800;9.05303100;2023-12-04T00:28:22;96049.41;;;-9.49;100.00
7824;BME280;3957;48.61947800;9.05303100;2023-12-04T00:29:23;96047.81;;;-9.51;100.00
7824;BME280;3957;48.61947800;9.05303100;2023-12-04T00:30:25;96045.31;;;-9.53;100.00
7824;BME280;3957;48.61947800;9.05303100;2023-12-04T00:31:27;96044.56;;;-9.55;100.00
7824;BME280;3957;48.61947800;9.05303100;2023-12-04T00:32:30;96042.06;;;-9.57;100.00
7824;BME280;3957;48.61947800;9.05303100;2023-12-04T00:33:32;96041.19;;;-9.57;100.00
7824;BME280;3957;48.61947800;9.05303100;2023-12-04T00:34:34;96037.69;;;-9.56;100.00
7824;BME280;3957;48.61947800;9.05303100;2023-12-04T00:35:36;96036.72;;;-9.53;100.00
7824;BME280;3957;48.61947800;9.05303100;2023-12-04T00:36:38;96032.69;;;-9.43;100.00
7824;BME280;3957;48.61947800;9.05303100;2023-12-04T00:37:39;96025.94;;;-9.46;100.00
7824;BME280;3957;48.61947800;9.05303100;2023-12-04T00:38:41;96031.03;;;-9.44;100.00
7824;BME280;3957;48.61947800;9.05303100;2023-12-04T00:39:43;96023.00;;;-9.40;100.00
7824;BME280;3957;48.61947800;9.05303100;2023-12-04T00:40:44;96022.91;;;-9.38;100.00
7824;BME280;3957;48.61947800;9.05303100;2023-12-04T00:41:46;96016.91;;;-9.38;100.00
7824;BME280;3957;48.61947800;9.05303100;2023-12-04T00:42:47;96030.88;;;-9.41;100.00
7824;BME280;3957;48.61947800;9.05303100;2023-12-04T00:43:49;96019.50;;;-9.38;100.00
7824;BME280;3957;48.61947800;9.05303100;2023-12-04T00:44:50;96024.69;;;-9.38;100.00
7824;BME280;3957;48.61947800;9.05303100;2023-12-04T00:45:52;96019.25;;;-9.50;100.00
7824;BME280;3957;48.61947800;9.05303100;2023-12-04T00:46:53;96022.84;;;-9.52;100.00
7824;BME280;3957;48.61947800;9.05303100;2023-12-04T00:47:55;96017.97;;;-9.59;100.00
7824;BME280;3957;48.61947800;9.05303100;2023-12-04T00:48:57;96022.84;;;-9.52;100.00
7824;BME280;3957;48.61947800;9.05303100;2023-12-04T00:49:58;96019.66;;;-9.58;100.00
7824;BME280;3957;48.61947800;9.05303100;2023-12-04T00:51:00;96024.75;;;-9.56;100.00
7824;BME280;3957;48.61947800;9.05303100;2023-12-04T00:52:01;96021.34;;;-9.57;100.00
7824;BME280;3957;48.61947800;9.05303100;2023-12-04T00:53:03;96020.75;;;-9.62;100.00
7824;BME280;3957;48.61947800;9.05303100;2023-12-04T00:54:05;96015.72;;;-9.65;100.00
7824;BME280;3957;48.61947800;9.05303100;2023-12-04T00:55:07;96020.56;;;-9.75;100.00
7824;BME280;3957;48.61947800;9.05303100;2023-12-04T00:56:09;96020.22;;;-9.68;100.00
7824;BME280;3957;48.61947800;9.05303100;2023-12-04T00:57:11;96009.03;;;-9.69;100.00
7824;BME280;3957;48.61947800;9.05303100;2023-12-04T00:58:12;96017.03;;;-9.74;100.00
7824;BME280;3957;48.61947800;9.05303100;2023-12-04T00:59:14;96015.53;;;-9.78;100.00
7824;BME280;3957;48.61947800;9.05303100;2023-12-04T01:00:16;96017.47;;;-9.65;100.00
7824;BME280;3957;48.61947800;9.05303100;2023-12-04T01:01:18;96013.22;;;-9.66;100.00
7824;BME280;3957;48.61947800;9.05303100;2023-12-04T01:02:21;96018.63;;;-9.71;100.00
7824;BME280;3957;48.61947800;9.05303100;2023-12-04T01:03:22;96017.13;;;-9.75;100.00
7824;BME280;3957;48.61947800;9.05303100;2023-12-04T01:04:24;96013.03;;;-9.79;100.00
7824;BME280;3957;48.61947800;9.05303100;2023-12-04T01:05:25;96021.66;;;-9.63;100.00
7824;BME280;3957;48.61947800;9.05303100;2023-12-04T01:06:27;96020.69;;;-9.44;100.00
7824;BME280;3957;48.61947800;9.05303100;2023-12-04T01:07:28;96013.34;;;-9.36;100.00
7824;BME280;3957;48.61947800;9.05303100;2023-12-04T01:08:30;96013.56;;;-9.41;100.00
7824;BME280;3957;48.61947800;9.05303100;2023-12-04T01:09:34;96019.00;;;-9.45;100.00
7824;BME280;3957;48.61947800;9.05303100;2023-12-04T01:10:36;96008.16;;;-9.36;100.00
7824;BME280;3957;48.61947800;9.05303100;2023-12-04T01:11:37;96011.47;;;-9.34;100.00
7824;BME280;3957;48.61947800;9.05303100;2023-12-04T01:12:39;96012.66;;;-9.24;100.00
7824;BME280;3957;48.61947800;9.05303100;2023-12-04T01:13:41;96013.06;;;-9.15;100.00
7824;BME280;3957;48.61947800;9.05303100;2023-12-04T01:14:42;96016.41;;;-8.97;100.00
7824;BME280;3957;48.61947800;9.05303100;2023-12-04T01:15:44;96016.53;;;-8.84;100.00
7824;BME280;3957;48.61947800;9.05303100;2023-12-04T01:16:48;96022.41;;;-8.81;100.00
7824;BME280;3957;48.61947800;9.05303100;2023-12-04T01:17:49;96018.53;;;-8.74;100.00
7824;BME280;3957;48.61947800;9.05303100;2023-12-04T01:18:51;96010.97;;;-8.78;100.00
7824;BME280;3957;48.61947800;9.05303100;2023-12-04T01:19:53;96010.56;;;-8.70;100.00
7824;BME280;3957;48.61947800;9.05303100;2023-12-04T01:20:54;96007.28;;;-8.74;100.00
7824;BME280;3957;48.61947800;9.05303100;2023-12-04T01:21:56;96008.88;;;-8.72;100.00
7824;BME280;3957;48.61947800;9.05303100;2023-12-04T01:22:58;95997.78;;;-8.74;100.00
7824;BME280;3957;48.61947800;9.05303100;2023-12-04T01:23:59;96003.53;;;-8.68;100.00
7824;BME280;3957;48.61947800;9.05303100;2023-12-04T01:25:01;96003.59;;;-8.70;100.00
7824;BME280;3957;48.61947800;9.05303100;2023-12-04T01:26:04;95999.19;;;-8.68;100.00
7824;BME280;3957;48.61947800;9.05303100;2023-12-04T01:27:06;95995.47;;;-8.64;100.00
7824;BME280;3957;48.61947800;9.05303100;2023-12-04T01:28:07;95994.72;;;-8.66;100.00
7824;BME280;3957;48.61947800;9.05303100;2023-12-04T01:29:09;95998.16;;;-8.65;100.00
7824;BME280;3957;48.61947800;9.05303100;2023-12-04T01:30:11;95992.78;;;-8.62;100.00
7824;BME280;3957;48.61947800;9.05303100;2023-12-04T01:31:12;95990.56;;;-8.68;100.00
7824;BME280;3957;48.61947800;9.05303100;2023-12-04T01:32:14;95986.81;;;-8.79;100.00
7824;BME280;3957;48.61947800;9.05303100;2023-12-04T01:33:15;95981.50;;;-8.92;100.00
7824;BME280;3957;48.61947800;9.05303100;2023-12-04T01:34:17;95987.59;;;-8.93;100.00
7824;BME280;3957;48.61947800;9.05303100;2023-12-04T01:35:19;95983.69;;;-9.00;100.00
7824;BME280;3957;48.61947800;9.05303100;2023-12-04T01:36:21;95982.09;;;-9.02;100.00
7824;BME280;3957;48.61947800;9.05303100;2023-12-04T01:37:22;95986.53;;;-9.04;100.00
7824;BME280;3957;48.61947800;9.05303100;2023-12-04T01:38:24;95985.63;;;-9.03;100.00
7824;BME280;3957;48.61947800;9.05303100;2023-12-04T01:39:26;95989.97;;;-9.04;100.00
7824;BME280;3957;48.61947800;9.05303100;2023-12-04T01:40:28;95998.41;;;-9.00;100.00
7824;BME280;3957;48.61947800;9.05303100;2023-12-04T01:41:30;95982.78;;;-8.99;100.00
7824;BME280;3957;48.61947800;9.05303100;2023-12-04T01:42:31;95988.47;;;-9.08;100.00
7824;BME280;3957;48.61947800;9.05303100;2023-12-04T01:43:33;95985.47;;;-9.16;100.00
7824;BME280;3957;48.61947800;9.05303100;2023-12-04T01:44:36;95985.47;;;-9.16;100.00
7824;BME280;3957;48.61947800;9.05303100;2023-12-04T01:45:37;95983.81;;;-9.17;100.00
7824;BME280;3957;48.61947800;9.05303100;2023-12-04T01:46:39;95979.13;;;-9.27;100.00
7824;BME280;3957;48.61947800;9.05303100;2023-12-04T01:47:41;95976.78;;;-9.31;100.00
7824;BME280;3957;48.61947800;9.05303100;2023-12-04T01:48:44;95978.06;;;-9.38;100.00
7824;BME280;3957;48.61947800;9.05303100;2023-12-04T01:49:47;95975.66;;;-9.42;100.00
7824;BME280;3957;48.61947800;9.05303100;2023-12-04T01:50:48;95973.97;;;-9.43;100.00
7824;BME280;3957;48.61947800;9.05303100;2023-12-04T01:51:50;95975.78;;;-9.45;100.00
7824;BME280;3957;48.61947800;9.05303100;2023-12-04T01:52:53;95976.13;;;-9.35;100.00
7824;BME280;3957;48.61947800;9.05303100;2023-12-04T01:53:55;95973.59;;;-9.36;100.00
7824;BME280;3957;48.61947800;9.05303100;2023-12-04T01:55:00;95984.56;;;-9.31;100.00
7824;BME280;3957;48.61947800;9.05303100;2023-12-04T01:56:02;95976.63;;;-9.28;100.00
7824;BME280;3957;48.61947800;9.05303100;2023-12-04T01:57:04;95981.97;;;-9.31;100.00
7824;BME280;3957;48.61947800;9.05303100;2023-12-04T01:58:07;95981.78;;;-9.28;100.00
7824;BME280;3957;48.61947800;9.05303100;2023-12-04T01:59:09;95977.69;;;-9.32;100.00
7824;BME280;3957;48.61947800;9.05303100;2023-12-04T02:00:11;95984.25;;;-9.41;100.00
7824;BME280;3957;48.61947800;9.05303100;2023-12-04T02:01:14;95976.88;;;-9.49;100.00
7824;BME280;3957;48.61947800;9.05303100;2023-12-04T02:02:15;95975.28;;;-9.51;100.00
7824;BME280;3957;48.61947800;9.05303100;2023-12-04T02:03:18;95974.19;;;-9.47;100.00
7824;BME280;3957;48.61947800;9.05303100;2023-12-04T02:04:20;95971.59;;;-9.47;100.00
7824;BME280;3957;48.61947800;9.05303100;2023-12-04T02:05:22;95971.03;;;-9.52;100.00
7824;BME280;3957;48.61947800;9.05303100;2023-12-04T02:06:24;95969.00;;;-9.47;100.00
7824;BME280;3957;48.61947800;9.05303100;2023-12-04T02:07:26;95967.44;;;-9.50;100.00
7824;BME280;3957;48.61947800;9.05303100;2023-12-04T02:08:28;95969.63;;;-9.58;100.00
7824;BME280;3957;48.61947800;9.05303100;2023-12-04T02:09:30;95960.81;;;-9.55;100.00
7824;BME280;3957;48.61947800;9.05303100;2023-12-04T02:10:32;95960.09;;;-9.58;100.00
7824;BME280;3957;48.61947800;9.05303100;2023-12-04T02:11:34;95962.94;;;-9.62;100.00
7824;BME280;3957;48.61947800;9.05303100;2023-12-04T02:12:35;95960.25;;;-9.61;100.00
7824;BME280;3957;48.61947800;9.05303100;2023-12-04T02:13:37;95952.72;;;-9.65;100.00
7824;BME280;3957;48.61947800;9.05303100;2023-12-04T02:14:38;95956.50;;;-9.71;100.00
7824;BME280;3957;48.61947800;9.05303100;2023-12-04T02:15:40;95959.75;;;-9.67;100.00
7824;BME280;3957;48.61947800;9.05303100;2023-12-04T02:16:43;95962.25;;;-9.66;100.00
7824;BME280;3957;48.61947800;9.05303100;2023-12-04T02:17:46;95961.66;;;-9.71;100.00
7824;BME280;3957;48.61947800;9.05303100;2023-12-04T02:18:48;95960.03;;;-9.72;100.00
7824;BME280;3957;48.61947800;9.05303100;2023-12-04T02:19:50;95958.44;;;-9.75;100.00
7824;BME280;3957;48.61947800;9.05303100;2023-12-04T02:20:53;95957.34;;;-9.70;100.00
7824;BME280;3957;48.61947800;9.05303100;2023-12-04T02:21:54;95957.34;;;-9.70;100.00
7824;BME280;3957;48.61947800;9.05303100;2023-12-04T02:22:56;95953.91;;;-9.71;100.00
7824;BME280;3957;48.61947800;9.05303100;2023-12-04T02:23:57;95955.66;;;-9.71;100.00
7824;BME280;3957;48.61947800;9.05303100;2023-12-04T02:24:59;95954.97;;;-9.75;100.00
7824;BME280;3957;48.61947800;9.05303100;2023-12-04T02:26:15;95958.75;;;-9.81;100.00
7824;BME280;3957;48.61947800;9.05303100;2023-12-04T02:27:25;95960.50;;;-9.81;100.00
7824;BME280;3957;48.61947800;9.05303100;2023-12-04T02:28:32;95961.59;;;-9.85;100.00
7824;BME280;3957;48.61947800;9.05303100;2023-12-04T02:29:39;95947.66;;;-9.83;100.00
7824;BME280;3957;48.61947800;9.05303100;2023-12-04T02:30:43;95958.22;;;-9.87;100.00
7824;BME280;3957;48.61947800;9.05303100;2023-12-04T02:31:47;95961.84;;;-9.90;100.00
7824;BME280;3957;48.61947800;9.05303100;2023-12-04T02:32:51;95962.66;;;-9.89;100.00
7824;BME280;3957;48.61947800;9.05303100;2023-12-04T02:33:55;95973.69;;;-9.86;100.00
7824;BME280;3957;48.61947800;9.05303100;2023-12-04T02:34:59;95969.88;;;-9.79;100.00
7824;BME280;3957;48.61947800;9.05303100;2023-12-04T02:36:05;95962.53;;;-9.70;100.00
7824;BME280;3957;48.61947800;9.05303100;2023-12-04T02:37:08;95958.84;;;-9.66;100.00
7824;BME280;3957;48.61947800;9.05303100;2023-12-04T02:38:11;95949.41;;;-9.67;100.00
7824;BME280;3957;48.61947800;9.05303100;2023-12-04T02:39:13;95948.41;;;-9.65;100.00
7824;BME280;3957;48.61947800;9.05303100;2023-12-04T02:40:15;95945.22;;;-9.70;100.00
7824;BME280;3957;48.61947800;9.05303100;2023-12-04T02:41:17;95943.81;;;-9.76;100.00
7824;BME280;3957;48.61947800;9.05303100;2023-12-04T02:42:19;95944.88;;;-9.80;100.00
7824;BME280;3957;48.61947800;9.05303100;2023-12-04T02:43:20;95947.72;;;-9.84;100.00
7824;BME280;3957;48.61947800;9.05303100;2023-12-04T02:44:22;95939.97;;;-9.84;100.00
7824;BME280;3957;48.61947800;9.05303100;2023-12-04T02:45:23;95942.38;;;-9.81;100.00
7824;BME280;3957;48.61947800;9.05303100;2023-12-04T02:46:25;95932.44;;;-9.89;100.00
7824;BME280;3957;48.61947800;9.05303100;2023-12-04T02:47:27;95935.09;;;-9.91;100.00
7824;BME280;3957;48.61947800;9.05303100;2023-12-04T02:48:29;95935.34;;;-9.95;100.00
7824;BME280;3957;48.61947800;9.05303100;2023-12-04T02:49:31;95926.75;;;-9.96;100.00
7824;BME280;3957;48.61947800;9.05303100;2023-12-04T02:50:32;95929.19;;;-9.93;100.00
7824;BME280;3957;48.61947800;9.05303100;2023-12-04T02:51:34;95919.09;;;-9.81;100.00
7824;BME280;3957;48.61947800;9.05303100;2023-12-04T02:52:36;95914.72;;;-9.81;100.00
7824;BME280;3957;48.61947800;9.05303100;2023-12-04T02:53:38;95916.31;;;-9.78;100.00
7824;BME280;3957;48.61947800;9.05303100;2023-12-04T02:54:39;95923.41;;;-9.66;100.00
7824;BME280;3957;48.61947800;9.05303100;2023-12-04T02:55:41;95920.81;;;-9.66;100.00
7824;BME280;3957;48.61947800;9.05303100;2023-12-04T02:56:42;95921.59;;;-9.64;100.00
7824;BME280;3957;48.61947800;9.05303100;2023-12-04T02:57:44;95925.59;;;-9.58;100.00
7824;BME280;3957;48.61947800;9.05303100;2023-12-04T02:58:47;95919.31;;;-9.54;100.00
7824;BME280;3957;48.61947800;9.05303100;2023-12-04T02:59:49;95917.22;;;-9.47;100.00
7824;BME280;3957;48.61947800;9.05303100;2023-12-04T03:00:50;95910.47;;;-9.50;100.00
7824;BME280;3957;48.61947800;9.05303100;2023-12-04T03:01:52;95914.22;;;-9.55;100.00
7824;BME280;3957;48.61947800;9.05303100;2023-12-04T03:02:54;95911.88;;;-9.60;100.00
7824;BME280;3957;48.61947800;9.05303100;2023-12-04T03:03:55;95903.59;;;-9.51;100.00
7824;BME280;3957;48.61947800;9.05303100;2023-12-04T03:04:57;95904.97;;;-9.60;100.00
7824;BME280;3957;48.61947800;9.05303100;2023-12-04T03:05:58;95898.44;;;-9.51;100.00
7824;BME280;3957;48.61947800;9.05303100;2023-12-04T03:07:00;95899.56;;;-9.41;100.00
7824;BME280;3957;48.61947800;9.05303100;2023-12-04T03:08:02;95892.47;;;-9.53;100.00
7824;BME280;3957;48.61947800;9.05303100;2023-12-04T03:09:04;95885.97;;;-9.60;100.00
7824;BME280;3957;48.61947800;9.05303100;2023-12-04T03:10:06;95885.34;;;-9.64;100.00
7824;BME280;3957;48.61947800;9.05303100;2023-12-04T03:11:08;95880.22;;;-9.65;100.00
7824;BME280;3957;48.61947800;9.05303100;2023-12-04T03:12:09;95880.97;;;-9.63;100.00
7824;BME280;3957;48.61947800;9.05303100;2023-12-04T03:13:11;95879.97;;;-9.61;100.00
7824;BME280;3957;48.61947800;9.05303100;2023-12-04T03:14:13;95876.38;;;-9.58;100.00
7824;BME280;3957;48.61947800;9.05303100;2023-12-04T03:15:15;95877.44;;;-9.46;100.00
7824;BME280;3957;48.61947800;9.05303100;2023-12-04T03:16:17;95877.09;;;-9.40;100.00
7824;BME280;3957;48.61947800;9.05303100;2023-12-04T03:17:19;95877.94;;;-9.40;100.00
7824;BME280;3957;48.61947800;9.05303100;2023-12-04T03:18:21;95887.28;;;-9.37;100.00
7824;BME280;3957;48.61947800;9.05303100;2023-12-04T03:19:24;95872.56;;;-9.36;100.00
7824;BME280;3957;48.61947800;9.05303100;2023-12-04T03:20:26;95876.31;;;-9.26;100.00
7824;BME280;3957;48.61947800;9.05303100;2023-12-04T03:21:27;95876.44;;;-9.13;100.00
7824;BME280;3957;48.61947800;9.05303100;2023-12-04T03:22:30;95875.78;;;-9.17;100.00
7824;BME280;3957;48.61947800;9.05303100;2023-12-04T03:23:31;95879.72;;;-9.10;100.00
7824;BME280;3957;48.61947800;9.05303100;2023-12-04T03:24:33;95878.59;;;-9.06;100.00
7824;BME280;3957;48.61947800;9.05303100;2023-12-04T03:25:34;95865.38;;;-9.01;100.00
7824;BME280;3957;48.61947800;9.05303100;2023-12-04T03:26:36;95868.97;;;-9.03;100.00
7824;BME280;3957;48.61947800;9.05303100;2023-12-04T03:27:37;95868.38;;;-9.09;100.00
7824;BME280;3957;48.61947800;9.05303100;2023-12-04T03:28:39;95870.25;;;-9.11;100.00
7824;BME280;3957;48.61947800;9.05303100;2023-12-04T03:29:41;95867.25;;;-9.19;100.00
7824;BME280;3957;48.61947800;9.05303100;2023-12-04T03:30:43;95860.97;;;-9.15;100.00
7824;BME280;3957;48.61947800;9.05303100;2023-12-04T03:31:46;95854.69;;;-9.25;100.00
7824;BME280;3957;48.61947800;9.05303100;2023-12-04T03:32:48;95851.31;;;-9.27;100.00
7824;BME280;3957;48.61947800;9.05303100;2023-12-04T03:33:49;95849.31;;;-9.22;100.00
7824;BME280;3957;48.61947800;9.05303100;2023-12-04T03:34:51;95832.81;;;-9.21;100.00
7824;BME280;3957;48.61947800;9.05303100;2023-12-04T03:35:53;95838.19;;;-9.24;100.00
7824;BME280;3957;48.61947800;9.05303100;2023-12-04T03:36:54;95832.91;;;-9.23;100.00
7824;BME280;3957;48.61947800;9.05303100;2023-12-04T03:37:56;95833.00;;;-9.24;100.00
7824;BME280;3957;48.61947800;9.05303100;2023-12-04T03:38:57;95822.84;;;-9.13;100.00
7824;BME280;3957;48.61947800;9.05303100;2023-12-04T03:39:59;95824.13;;;-9.20;100.00
7824;BME280;3957;48.61947800;9.05303100;2023-12-04T03:41:01;95829.22;;;-9.18;100.00
7824;BME280;3957;48.61947800;9.05303100;2023-12-04T03:42:02;95826.91;;;-9.09;100.00
7824;BME280;3957;48.61947800;9.05303100;2023-12-04T03:43:04;95836.19;;;-9.04;100.00
7824;BME280;3957;48.61947800;9.05303100;2023-12-04T03:44:06;95836.28;;;-9.06;100.00
7824;BME280;3957;48.61947800;9.05303100;2023-12-04T03:45:07;95840.06;;;-9.12;100.00
7824;BME280;3957;48.61947800;9.05303100;2023-12-04T03:46:09;95838.22;;;-9.10;100.00
7824;BME280;3957;48.61947800;9.05303100;2023-12-04T03:47:11;95843.03;;;-9.03;100.00
7824;BME280;3957;48.61947800;9.05303100;2023-12-04T03:48:13;95842.91;;;-8.86;100.00
7824;BME280;3957;48.61947800;9.05303100;2023-12-04T03:49:15;95844.66;;;-8.72;100.00
7824;BME280;3957;48.61947800;9.05303100;2023-12-04T03:50:16;95842.16;;;-8.74;100.00
7824;BME280;3957;48.61947800;9.05303100;2023-12-04T03:51:18;95845.03;;;-8.64;100.00
7824;BME280;3957;48.61947800;9.05303100;2023-12-04T03:52:19;95849.31;;;-8.63;100.00
7824;BME280;3957;48.61947800;9.05303100;2023-12-04T03:53:21;95840.13;;;-8.68;100.00
7824;BME280;3957;48.61947800;9.05303100;2023-12-04T03:54:22;95835.97;;;-8.71;100.00
7824;BME280;3957;48.61947800;9.05303100;2023-12-04T03:55:23;95837.81;;;-8.73;100.00
7824;BME280;3957;48.61947800;9.05303100;2023-12-04T03:56:25;95834.38;;;-8.74;100.00
7824;BME280;3957;48.61947800;9.05303100;2023-12-04T03:57:27;95836.22;;;-8.76;100.00
7824;BME280;3957;48.61947800;9.05303100;2023-12-04T03:58:28;95833.72;;;-8.77;100.00
7824;BME280;3957;48.61947800;9.05303100;2023-12-04T03:59:30;95835.97;;;-8.71;100.00
7824;BME280;3957;48.61947800;9.05303100;2023-12-04T04:00:31;95840.50;;;-8.75;100.00
7824;BME280;3957;48.61947800;9.05303100;2023-12-04T04:01:33;95831.03;;;-8.76;100.00
7824;BME280;3957;48.61947800;9.05303100;2023-12-04T04:02:34;95835.00;;;-8.70;100.00
7824;BME280;3957;48.61947800;9.05303100;2023-12-04T04:03:36;95838.19;;;-8.65;100.00
7824;BME280;3957;48.61947800;9.05303100;2023-12-04T04:04:38;95829.66;;;-8.67;100.00
7824;BME280;3957;48.61947800;9.05303100;2023-12-04T04:05:39;95828.72;;;-8.66;100.00
7824;BME280;3957;48.61947800;9.05303100;2023-12-04T04:06:41;95833.09;;;-8.66;100.00
7824;BME280;3957;48.61947800;9.05303100;2023-12-04T04:07:43;95826.78;;;-8.62;100.00
7824;BME280;3957;48.61947800;9.05303100;2023-12-04T04:08:45;95819.81;;;-8.62;100.00
7824;BME280;3957;48.61947800;9.05303100;2023-12-04T04:09:46;95823.81;;;-8.56;100.00
7824;BME280;3957;48.61947800;9.05303100;2023-12-04T04:10:48;95819.94;;;-8.49;100.00
7824;BME280;3957;48.61947800;9.05303100;2023-12-04T04:11:49;95823.03;;;-8.44;100.00
7824;BME280;3957;48.61947800;9.05303100;2023-12-04T04:12:51;95823.88;;;-8.43;100.00
7824;BME280;3957;48.61947800;9.05303100;2023-12-04T04:13:52;95822.88;;;-8.41;100.00
7824;BME280;3957;48.61947800;9.05303100;2023-12-04T04:14:54;95818.69;;;-8.43;100.00
7824;BME280;3957;48.61947800;9.05303100;2023-12-04T04:15:56;95816.09;;;-8.43;100.00
7824;BME280;3957;48.61947800;9.05303100;2023-12-04T04:16:58;95818.50;;;-8.40;100.00
7824;BME280;3957;48.61947800;9.05303100;2023-12-04T04:17:59;95816.66;;;-8.38;100.00
7824;BME280;3957;48.61947800;9.05303100;2023-12-04T04:19:01;95821.41;;;-8.45;100.00
7824;BME280;3957;48.61947800;9.05303100;2023-12-04T04:20:03;95822.34;;;-8.46;100.00
7824;BME280;3957;48.61947800;9.05303100;2023-12-04T04:21:05;95823.50;;;-8.37;100.00
7824;BME280;3957;48.61947800;9.05303100;2023-12-04T04:22:06;95826.66;;;-8.32;100.00
7824;BME280;3957;48.61947800;9.05303100;2023-12-04T04:23:08;95834.59;;;-8.06;100.00
7824;BME280;3957;48.61947800;9.05303100;2023-12-04T04:24:10;95830.56;;;-7.97;100.00
7824;BME280;3957;48.61947800;9.05303100;2023-12-04T04:25:11;95828.16;;;-8.00;100.00
7824;BME280;3957;48.61947800;9.05303100;2023-12-04T04:26:13;95833.38;;;-8.00;100.00
7824;BME280;3957;48.61947800;9.05303100;2023-12-04T04:27:15;95823.09;;;-8.02;100.00
7824;BME280;3957;48.61947800;9.05303100;2023-12-04T04:28:16;95828.38;;;-8.04;100.00
7824;BME280;3957;48.61947800;9.05303100;2023-12-04T04:29:18;95824.91;;;-8.04;100.00
7824;BME280;3957;48.61947800;9.05303100;2023-12-04T04:30:19;95829.28;;;-8.05;100.00
7824;BME280;3957;48.61947800;9.05303100;2023-12-04T04:31:21;95824.38;;;-8.09;100.00
7824;BME280;3957;48.61947800;9.05303100;2023-12-04T04:32:22;95828.09;;;-8.13;100.00
7824;BME280;3957;48.61947800;9.05303100;2023-12-04T04:33:24;95829.03;;;-8.14;100.00
7824;BME280;3957;48.61947800;9.05303100;2023-12-04T04:34:25;95833.28;;;-8.13;100.00
7824;BME280;3957;48.61947800;9.05303100;2023-12-04T04:35:28;95833.25;;;-7.99;100.00
7824;BME280;3957;48.61947800;9.05303100;2023-12-04T04:36:29;95828.31;;;-7.89;100.00
7824;BME280;3957;48.61947800;9.05303100;2023-12-04T04:37:31;95827.31;;;-7.87;100.00
7824;BME280;3957;48.61947800;9.05303100;2023-12-04T04:38:32;95832.28;;;-7.83;100.00
7824;BME280;3957;48.61947800;9.05303100;2023-12-04T04:39:34;95822.56;;;-7.80;100.00
7824;BME280;3957;48.61947800;9.05303100;2023-12-04T04:40:36;95830.88;;;-7.75;100.00
7824;BME280;3957;48.61947800;9.05303100;2023-12-04T04:41:37;95828.25;;;-7.75;100.00
7824;BME280;3957;48.61947800;9.05303100;2023-12-04T04:42:39;95822.25;;;-7.75;100.00
7824;BME280;3957;48.61947800;9.05303100;2023-12-04T04:43:41;95829.22;;;-7.76;100.00
7824;BME280;3957;48.61947800;9.05303100;2023-12-04T04:44:42;95828.00;;;-7.70;100.00
7824;BME280;3957;48.61947800;9.05303100;2023-12-04T04:45:44;95827.69;;;-7.65;100.00
7824;BME280;3957;48.61947800;9.05303100;2023-12-04T04:46:45;95821.66;;;-7.66;100.00
7824;BME280;3957;48.61947800;9.05303100;2023-12-04T04:47:47;95819.06;;;-7.66;100.00
7824;BME280;3957;48.61947800;9.05303100;2023-12-04T04:48:48;95821.56;;;-7.64;100.00
7824;BME280;3957;48.61947800;9.05303100;2023-12-04T04:49:50;95828.34;;;-7.62;100.00
7824;BME280;3957;48.61947800;9.05303100;2023-12-04T04:50:51;95820.81;;;-7.66;100.00
7824;BME280;3957;48.61947800;9.05303100;2023-12-04T04:51:53;95818.63;;;-7.73;100.00
7824;BME280;3957;48.61947800;9.05303100;2023-12-04T04:52:54;95813.81;;;-7.79;100.00